createdAt,value
2022-11-22T00:01:40.039Z,39.17
2022-11-22T00:04:06.622Z,50.65
2022-11-22T00:06:33.173Z,55.55
2022-11-22T00:08:59.733Z,37.63
2022-11-22T00:11:26.333Z,69.37
2022-11-22T00:13:52.923Z,53.05
2022-11-22T00:16:19.476Z,31.90
2022-11-22T00:18:45.994Z,79.22
2022-11-22T00:21:12.549Z,25.98
2022-11-22T00:23:39.112Z,24.75
2022-11-22T00:26:07.175Z,37.13
2022-11-22T00:29:11.060Z,61.03
2022-11-22T00:31:37.610Z,31.73
2022-11-22T00:34:04.194Z,37.25
2022-11-22T00:36:30.778Z,45.00
2022-11-22T00:38:57.346Z,35.95
2022-11-22T00:41:23.895Z,35.30
2022-11-22T00:43:50.589Z,54.45
2022-11-22T00:46:17.135Z,32.97
2022-11-22T00:48:43.826Z,46.72
2022-11-22T00:51:10.418Z,45.72
2022-11-22T00:53:36.972Z,57.88
2022-11-22T00:56:03.815Z,59.80
2022-11-22T00:58:30.389Z,38.40
2022-11-22T01:00:57.228Z,31.58
2022-11-22T01:03:23.963Z,34.23
2022-11-22T01:05:50.546Z,37.65
2022-11-22T01:08:17.256Z,35.53
2022-11-22T01:10:43.817Z,39.67
2022-11-22T01:13:10.424Z,59.45
2022-11-22T01:15:37.031Z,48.20
2022-11-22T01:18:04.231Z,43.08
2022-11-22T01:20:30.945Z,41.03
2022-11-22T01:22:58.117Z,33.45
2022-11-22T01:25:24.665Z,33.28
2022-11-22T01:27:51.200Z,28.92
2022-11-22T01:30:18.014Z,32.05
2022-11-22T01:32:44.980Z,33.85
2022-11-22T01:35:11.791Z,32.27
2022-11-22T01:37:38.451Z,43.60
2022-11-22T01:40:05.668Z,44.97
2022-11-22T01:42:51.538Z,46.72
2022-11-22T01:45:30.238Z,34.58
2022-11-22T01:48:00.896Z,42.53
2022-11-22T01:50:27.949Z,37.33
2022-11-22T01:52:54.601Z,36.60
2022-11-22T01:55:21.185Z,101.22
2022-11-22T01:57:47.766Z,35.05
2022-11-22T02:00:16.851Z,50.55
2022-11-22T02:02:46.776Z,63.28
2022-11-22T02:05:16.695Z,49.10
2022-11-22T02:08:02.280Z,34.03
2022-11-22T02:10:29.288Z,77.55
2022-11-22T02:12:58.731Z,78.60
2022-11-22T02:15:25.463Z,55.67
2022-11-22T02:17:52.072Z,56.67
2022-11-22T02:20:19.362Z,79.45
2022-11-22T02:23:12.633Z,40.72
2022-11-22T02:25:41.609Z,38.72
2022-11-22T02:28:12.676Z,88.50
2022-11-22T02:30:39.882Z,67.25
2022-11-22T02:33:06.798Z,72.95
2022-11-22T02:35:33.416Z,56.63
2022-11-22T02:38:08.967Z,44.13
2022-11-22T02:40:39.363Z,42.70
2022-11-22T02:43:07.801Z,40.00
2022-11-22T02:45:34.431Z,39.60
2022-11-22T02:48:08.425Z,37.20
2022-11-22T02:50:35.448Z,42.62
2022-11-22T02:53:02.007Z,42.40
2022-11-22T02:55:28.881Z,37.65
2022-11-22T02:57:55.575Z,44.13
2022-11-22T03:00:22.739Z,40.15
2022-11-22T03:02:49.549Z,39.08
2022-11-22T03:05:16.286Z,38.30
2022-11-22T03:07:44.340Z,34.80
2022-11-22T03:10:11.023Z,35.42
2022-11-22T03:12:37.598Z,32.05
2022-11-22T03:15:41.305Z,38.55
2022-11-22T03:18:07.892Z,37.15
2022-11-22T03:20:34.489Z,38.90
2022-11-22T03:23:01.161Z,37.47
2022-11-22T03:25:27.825Z,42.30
2022-11-22T03:27:54.537Z,40.00
2022-11-22T03:30:21.118Z,35.95
2022-11-22T03:32:47.725Z,37.83
2022-11-22T03:35:14.299Z,36.38
2022-11-22T03:37:40.835Z,38.08
2022-11-22T03:40:08.371Z,43.05
2022-11-22T03:42:34.947Z,39.97
2022-11-22T03:45:01.587Z,33.88
2022-11-22T03:47:28.138Z,39.78
2022-11-22T03:49:54.737Z,35.90
2022-11-22T03:52:21.379Z,30.42
2022-11-22T03:54:47.968Z,33.72
2022-11-22T03:57:15.906Z,28.27
2022-11-22T04:00:00.968Z,32.40
2022-11-22T04:02:27.549Z,29.80
2022-11-22T04:04:54.187Z,27.37
2022-11-22T04:07:20.943Z,28.80
2022-11-22T04:09:47.595Z,26.95
2022-11-22T04:12:14.198Z,29.02
2022-11-22T04:14:59.563Z,28.17
2022-11-22T04:17:41.171Z,27.70
2022-11-22T04:20:27.914Z,31.15
2022-11-22T04:23:02.423Z,26.23
2022-11-22T04:25:30.521Z,30.05
2022-11-22T04:27:57.414Z,21.87
2022-11-22T04:30:42.929Z,24.57
2022-11-22T04:33:10.428Z,24.30
2022-11-22T04:35:37.462Z,22.65
2022-11-22T04:38:04.307Z,21.45
2022-11-22T04:40:31.456Z,18.73
2022-11-22T04:43:16.602Z,21.87
2022-11-22T04:45:43.428Z,21.33
2022-11-22T04:48:12.285Z,22.62
2022-11-22T04:50:58.649Z,18.70
2022-11-22T04:53:25.315Z,20.73
2022-11-22T04:55:51.854Z,20.50
2022-11-22T04:58:18.589Z,19.30
2022-11-22T05:00:45.315Z,22.02
2022-11-22T05:03:11.999Z,21.98
2022-11-22T05:05:39.626Z,20.75
2022-11-22T05:08:06.696Z,20.00
2022-11-22T05:10:53.848Z,21.00
2022-11-22T05:13:21.881Z,19.58
2022-11-22T05:15:48.447Z,19.50
2022-11-22T05:18:15.004Z,18.95
2022-11-22T05:20:41.567Z,20.65
2022-11-22T05:23:27.478Z,20.27
2022-11-22T05:25:54.047Z,18.67
2022-11-22T05:28:20.616Z,18.70
2022-11-22T05:30:47.412Z,19.90
2022-11-22T05:33:13.992Z,18.92
2022-11-22T05:35:40.588Z,20.62
2022-11-22T05:38:07.166Z,19.80
2022-11-22T05:40:33.765Z,20.88
2022-11-22T05:46:32.414Z,19.83
2022-11-22T05:49:00.353Z,22.27
2022-11-22T05:51:34.020Z,19.02
2022-11-22T05:54:01.454Z,20.92
2022-11-22T05:56:28.014Z,20.55
2022-11-22T05:58:55.069Z,22.60
2022-11-22T06:01:22.863Z,21.35
2022-11-22T06:06:16.196Z,19.75
2022-11-22T06:08:45.134Z,21.45
2022-11-22T06:11:16.734Z,19.30
2022-11-22T06:13:44.301Z,18.35
2022-11-22T06:16:11.096Z,23.05
2022-11-22T06:18:37.715Z,26.75
2022-11-22T06:21:08.015Z,22.73
2022-11-22T06:23:34.828Z,19.23
2022-11-22T06:26:03.236Z,21.02
2022-11-22T06:28:30.060Z,20.62
2022-11-22T06:31:04.257Z,21.30
2022-11-22T06:33:30.883Z,20.70
2022-11-22T06:36:03.687Z,20.25
2022-11-22T06:38:30.548Z,22.45
2022-11-22T06:41:04.225Z,23.83
2022-11-22T06:43:30.932Z,19.85
2022-11-22T06:45:59.600Z,19.48
2022-11-22T06:48:27.214Z,22.15
2022-11-22T06:50:59.361Z,20.60
2022-11-22T06:53:46.271Z,20.67
2022-11-22T06:56:37.294Z,20.27
2022-11-22T06:59:04.393Z,21.62
2022-11-22T07:01:31.535Z,20.45
2022-11-22T07:03:58.851Z,18.37
2022-11-22T07:06:26.989Z,18.30
2022-11-22T07:08:53.749Z,16.45
2022-11-22T07:11:24.414Z,16.25
2022-11-22T07:13:51.194Z,18.33
2022-11-22T07:16:19.408Z,20.92
2022-11-22T07:18:46.046Z,19.30
2022-11-22T07:21:14.530Z,19.33
2022-11-22T07:23:41.951Z,20.88
2022-11-22T07:26:09.981Z,21.17
2022-11-22T07:28:41.646Z,19.62
2022-11-22T07:31:08.976Z,23.25
2022-11-22T07:33:57.612Z,20.08
2022-11-22T07:36:24.707Z,18.65
2022-11-22T07:38:51.385Z,20.98
2022-11-22T07:41:19.778Z,20.55
2022-11-22T07:43:47.146Z,19.75
2022-11-22T07:46:35.002Z,19.45
2022-11-22T07:49:01.879Z,19.37
2022-11-22T07:51:28.630Z,21.53
2022-11-22T07:53:56.151Z,20.35
2022-11-22T07:56:23.190Z,18.55
2022-11-22T07:58:49.888Z,23.10
2022-11-22T08:01:17.861Z,20.00
2022-11-22T08:03:44.803Z,20.35
2022-11-22T08:06:11.971Z,23.58
2022-11-22T08:08:38.542Z,21.90
2022-11-22T08:11:05.657Z,20.70
2022-11-22T08:13:33.992Z,19.55
2022-11-22T08:16:09.179Z,17.52
2022-11-22T08:18:38.315Z,18.95
2022-11-22T08:21:11.904Z,18.23
2022-11-22T08:23:40.061Z,21.77
2022-11-22T08:26:07.178Z,20.08
2022-11-22T08:28:33.802Z,19.50
2022-11-22T08:31:01.917Z,19.92
2022-11-22T08:33:31.183Z,18.37
2022-11-22T08:35:57.837Z,19.75
2022-11-22T08:38:25.926Z,16.80
2022-11-22T08:40:52.992Z,19.10
2022-11-22T08:43:20.201Z,18.70
2022-11-22T08:45:48.996Z,16.90
2022-11-22T08:48:21.823Z,22.00
2022-11-22T08:50:53.804Z,18.65
2022-11-22T08:53:20.727Z,22.15
2022-11-22T08:55:47.504Z,18.60
2022-11-22T08:58:14.082Z,20.02
2022-11-22T09:00:40.949Z,17.40
2022-11-22T09:03:07.634Z,21.13
2022-11-22T09:05:34.416Z,18.70
2022-11-22T09:10:48.171Z,24.08
2022-11-22T09:13:14.801Z,23.02
2022-11-22T09:15:42.903Z,24.40
2022-11-22T09:18:09.677Z,18.20
2022-11-22T09:20:36.645Z,21.05
2022-11-22T09:23:04.232Z,20.63
2022-11-22T09:25:30.932Z,22.25
2022-11-22T09:28:02.661Z,19.23
2022-11-22T09:30:32.429Z,20.55
2022-11-22T09:32:59.385Z,26.05
2022-11-22T09:35:26.097Z,21.37
2022-11-22T09:37:54.082Z,25.15
2022-11-22T09:40:21.164Z,23.70
2022-11-22T09:43:00.876Z,24.42
2022-11-22T09:48:09.436Z,20.17
2022-11-22T09:51:15.252Z,22.87
2022-11-22T09:54:11.153Z,22.80
2022-11-22T09:56:37.808Z,25.12
2022-11-22T09:59:20.251Z,26.25
2022-11-22T10:01:55.751Z,25.05
2022-11-22T10:04:25.751Z,26.50
2022-11-22T10:06:54.460Z,22.75
2022-11-22T10:09:51.582Z,24.27
2022-11-22T10:12:20.997Z,22.35
2022-11-22T10:15:08.088Z,25.12
2022-11-22T10:17:54.774Z,24.85
2022-11-22T10:20:24.940Z,23.00
2022-11-22T10:22:51.706Z,26.42
2022-11-22T10:25:37.062Z,25.23
2022-11-22T10:28:18.128Z,22.00
2022-11-22T10:31:09.792Z,24.73
2022-11-22T10:34:06.943Z,25.12
2022-11-22T10:36:58.886Z,24.02
2022-11-22T10:52:40.125Z,24.83
2022-11-22T10:55:16.902Z,28.27
2022-11-22T10:58:04.911Z,23.27
2022-11-22T11:00:31.874Z,23.75
2022-11-22T11:03:33.620Z,29.00
2022-11-22T11:06:43.734Z,25.33
2022-11-22T11:12:53.328Z,24.12
2022-11-22T11:15:35.033Z,27.95
2022-11-22T11:18:04.026Z,30.05
2022-11-22T11:20:34.641Z,26.80
2022-11-22T11:23:16.919Z,28.35
2022-11-22T11:25:45.159Z,28.20
2022-11-22T11:28:22.988Z,30.05
2022-11-22T11:30:59.463Z,25.02
2022-11-22T11:33:31.072Z,28.10
2022-11-22T11:36:03.546Z,25.55
2022-11-22T11:38:54.374Z,25.70
2022-11-22T11:41:31.590Z,23.92
2022-11-22T11:44:03.113Z,25.92
2022-11-22T11:46:50.600Z,27.37
2022-11-22T11:49:18.783Z,30.23
2022-11-22T11:51:53.824Z,32.00
2022-11-22T11:54:21.870Z,27.50
2022-11-22T11:56:49.332Z,29.23
2022-11-22T11:59:23.500Z,31.92
2022-11-22T12:02:12.229Z,28.95
2022-11-22T12:05:05.905Z,32.40
2022-11-22T12:07:35.558Z,31.10
2022-11-22T12:10:04.160Z,30.83
2022-11-22T12:13:04.442Z,29.35
2022-11-22T12:15:52.800Z,32.47
2022-11-22T12:18:48.777Z,31.62
2022-11-22T12:21:26.615Z,33.38
2022-11-22T12:24:41.343Z,34.78
2022-11-22T12:26:59.973Z,30.20
2022-11-22T12:29:26.743Z,36.85
2022-11-22T12:31:59.773Z,34.58
2022-11-22T12:34:34.561Z,27.83
2022-11-22T12:37:05.079Z,32.75
2022-11-22T12:39:31.680Z,30.83
2022-11-22T12:42:18.682Z,32.25
2022-11-22T12:45:03.077Z,32.88
2022-11-22T12:47:32.513Z,35.83
2022-11-22T12:50:10.257Z,30.52
2022-11-22T12:52:47.705Z,30.67
2022-11-22T12:55:21.691Z,30.02
2022-11-22T12:57:51.961Z,32.67
2022-11-22T13:00:22.215Z,32.92
2022-11-22T13:03:07.692Z,31.83
2022-11-22T13:05:40.894Z,30.60
2022-11-22T13:08:37.985Z,31.17
2022-11-22T13:11:26.063Z,31.42
2022-11-22T13:14:02.664Z,26.92
2022-11-22T13:16:29.434Z,28.40
2022-11-22T13:18:59.387Z,25.33
2022-11-22T13:21:43.836Z,30.70
2022-11-22T13:24:10.392Z,25.52
2022-11-22T13:27:09.999Z,22.30
2022-11-22T13:29:36.557Z,24.90
2022-11-22T13:32:16.602Z,27.87
2022-11-22T13:34:59.102Z,26.05
2022-11-22T13:37:25.703Z,23.38
2022-11-22T13:39:52.373Z,33.15
2022-11-22T13:42:28.122Z,27.10
2022-11-22T13:44:54.817Z,26.17
2022-11-22T13:47:24.363Z,27.45
2022-11-22T13:49:51.869Z,20.08
2022-11-22T13:52:19.740Z,25.08
2022-11-22T13:54:46.381Z,23.87
2022-11-22T13:57:36.597Z,24.35
2022-11-22T14:00:14.931Z,27.40
2022-11-22T14:02:46.558Z,24.12
2022-11-22T14:05:26.050Z,22.98
2022-11-22T14:07:54.401Z,26.67
2022-11-22T14:10:53.387Z,27.37
2022-11-22T14:13:43.031Z,23.80
2022-11-22T14:16:42.657Z,20.45
2022-11-22T14:19:09.210Z,24.02
2022-11-22T14:21:59.975Z,25.50
2022-11-22T14:24:49.437Z,23.52
2022-11-22T14:27:37.229Z,22.73
2022-11-22T14:30:19.975Z,23.60
2022-11-22T14:33:06.329Z,21.00
2022-11-22T14:35:37.745Z,22.52
2022-11-22T14:38:07.718Z,31.08
2022-11-22T14:40:40.758Z,22.77
2022-11-22T14:43:27.621Z,24.42
2022-11-22T14:46:00.978Z,26.45
2022-11-22T14:48:45.488Z,25.35
2022-11-22T14:51:31.903Z,23.20
2022-11-22T14:54:01.277Z,23.33
2022-11-22T14:56:30.226Z,22.87
2022-11-22T14:58:58.553Z,28.92
2022-11-22T15:01:33.765Z,22.55
2022-11-22T15:09:16.789Z,22.55
2022-11-22T15:09:20.509Z,23.65
2022-11-22T15:10:43.692Z,24.05
2022-11-22T15:13:13.244Z,21.98
2022-11-22T15:59:52.539Z,22.13
2022-11-22T16:02:25.207Z,23.25
2022-11-22T16:06:08.379Z,24.73
2022-11-22T16:07:51.465Z,20.15
2022-11-22T16:10:23.262Z,24.15
2022-11-22T16:12:50.864Z,22.05
2022-11-22T16:15:37.122Z,23.77
2022-11-22T16:18:14.108Z,26.83
2022-11-22T16:21:02.721Z,22.30
2022-11-22T16:23:33.933Z,23.98
2022-11-22T16:26:22.188Z,24.30
2022-11-22T16:28:51.329Z,23.97
2022-11-22T16:31:25.840Z,20.08
2022-11-22T16:33:53.189Z,23.50
2022-11-22T16:36:20.603Z,20.77
2022-11-22T16:38:47.492Z,22.92
2022-11-22T16:41:25.180Z,20.08
2022-11-22T16:44:02.337Z,20.65
2022-11-22T16:46:28.965Z,25.67
2022-11-22T16:48:56.077Z,20.75
2022-11-22T16:51:29.581Z,22.00
2022-11-22T16:53:58.640Z,21.25
2022-11-22T16:56:26.907Z,21.17
2022-11-22T16:58:54.936Z,20.00
2022-11-22T17:01:23.299Z,24.73
2022-11-22T17:03:55.652Z,17.92
2022-11-22T17:06:43.460Z,21.10
2022-11-22T17:09:10.067Z,19.23
2022-11-22T17:11:36.716Z,20.23
2022-11-22T17:14:04.617Z,20.17
2022-11-22T17:18:57.807Z,17.65
2022-11-22T17:21:32.983Z,20.40
2022-11-22T17:24:19.530Z,21.27
2022-11-22T17:26:46.378Z,23.58
2022-11-22T17:29:28.976Z,20.37
2022-11-22T17:31:59.777Z,19.92
2022-11-22T17:34:26.431Z,23.80
2022-11-22T17:36:53.048Z,24.17
2022-11-22T17:39:19.622Z,23.87
2022-11-22T17:41:48.712Z,22.85
2022-11-22T17:44:15.932Z,24.27
2022-11-22T17:46:44.052Z,21.37
2022-11-22T17:49:15.656Z,19.62
2022-11-22T17:51:42.735Z,22.33
2022-11-22T17:54:09.407Z,18.80
2022-11-22T17:56:37.237Z,20.58
2022-11-22T18:01:30.421Z,22.60
2022-11-22T18:03:56.969Z,18.12
2022-11-22T18:06:23.566Z,21.35
2022-11-22T18:08:51.151Z,20.42
2022-11-22T18:11:18.042Z,19.75
2022-11-22T18:13:44.712Z,23.50
2022-11-22T18:16:15.620Z,21.02
2022-11-22T18:18:58.533Z,21.92
2022-11-22T18:21:29.248Z,18.30
2022-11-22T18:23:59.571Z,17.45
2022-11-22T18:26:42.132Z,20.10
2022-11-22T18:31:56.046Z,18.70
2022-11-22T18:34:23.088Z,16.92
2022-11-22T18:36:55.172Z,20.42
2022-11-22T18:39:24.033Z,17.65
2022-11-22T18:41:50.619Z,19.00
2022-11-22T18:44:17.464Z,18.92
2022-11-22T18:46:44.077Z,16.30
2022-11-22T18:49:10.776Z,18.67
2022-11-22T18:51:37.424Z,17.52
2022-11-22T18:54:04.311Z,18.60
2022-11-22T18:56:30.953Z,18.60
2022-11-22T18:58:59.660Z,20.30
2022-11-22T19:01:26.454Z,18.17
2022-11-22T19:03:53.242Z,18.40
2022-11-22T19:06:19.861Z,16.62
2022-11-22T19:08:49.069Z,19.52
2022-11-22T19:11:16.200Z,18.23
2022-11-22T19:13:43.441Z,19.73
2022-11-22T19:16:21.818Z,18.23
2022-11-22T19:21:17.178Z,19.67
2022-11-22T19:23:43.832Z,15.30
2022-11-22T19:26:14.592Z,19.37
2022-11-22T19:28:42.015Z,17.27
2022-11-22T19:31:13.498Z,17.40
2022-11-22T19:33:40.295Z,16.50
2022-11-22T19:36:10.056Z,18.77
2022-11-22T19:38:36.688Z,16.08
2022-11-22T19:41:07.933Z,17.85
2022-11-22T19:43:34.602Z,17.25
2022-11-22T19:46:01.822Z,17.85
2022-11-22T19:48:28.778Z,19.08
2022-11-22T19:50:55.659Z,17.37
2022-11-22T19:53:22.782Z,20.55
2022-11-22T19:55:49.580Z,19.05
2022-11-22T19:58:17.953Z,16.55
2022-11-22T20:00:44.626Z,19.35
2022-11-22T20:03:13.125Z,18.98
2022-11-22T20:05:41.615Z,21.90
2022-11-22T20:08:08.416Z,19.12
2022-11-22T20:10:35.387Z,19.23
2022-11-22T20:13:02.908Z,22.43
2022-11-22T20:15:31.536Z,16.65
2022-11-22T20:17:58.159Z,17.95
2022-11-22T20:20:24.722Z,17.20
2022-11-22T20:22:51.344Z,18.52
2022-11-22T20:25:17.949Z,19.23
2022-11-22T20:27:44.525Z,18.12
2022-11-22T20:30:11.477Z,16.40
2022-11-22T20:32:41.937Z,19.05
2022-11-22T20:35:09.767Z,16.08
2022-11-22T20:40:03.416Z,19.20
2022-11-22T20:42:34.786Z,18.87
2022-11-22T20:45:04.431Z,19.92
2022-11-22T20:47:31.207Z,16.58
2022-11-22T20:49:57.803Z,18.48
2022-11-22T20:52:24.567Z,16.35
2022-11-22T20:54:51.208Z,18.08
2022-11-22T20:57:17.857Z,16.48
2022-11-22T20:59:44.457Z,16.33
2022-11-22T21:02:11.262Z,18.20
2022-11-22T21:04:37.860Z,18.30
2022-11-22T21:07:04.600Z,21.25
2022-11-22T21:09:31.319Z,20.83
2022-11-22T21:11:57.909Z,17.33
2022-11-22T21:14:24.507Z,20.15
2022-11-22T21:16:51.380Z,18.25
2022-11-22T21:19:18.654Z,17.33
2022-11-22T21:21:45.296Z,18.27
2022-11-22T21:24:13.121Z,16.80
2022-11-22T21:29:16.531Z,18.35
2022-11-22T21:31:43.770Z,18.67
2022-11-22T21:34:11.264Z,15.20
2022-11-22T21:36:37.875Z,18.73
2022-11-22T21:39:04.539Z,19.17
2022-11-22T21:41:39.301Z,15.73
2022-11-22T21:44:06.872Z,18.58
2022-11-22T21:46:33.450Z,18.27
2022-11-22T21:49:00.075Z,16.65
2022-11-22T21:51:26.883Z,18.33
2022-11-22T21:54:00.279Z,17.10
2022-11-22T21:56:27.353Z,17.67
2022-11-22T21:58:53.982Z,18.08
2022-11-22T22:01:20.779Z,17.65
2022-11-22T22:03:47.692Z,15.52
2022-11-22T22:06:14.386Z,17.57
2022-11-22T22:08:41.364Z,18.65
2022-11-22T22:11:07.983Z,16.73
2022-11-22T22:13:34.646Z,16.60
2022-11-22T22:16:04.077Z,17.10
2022-11-22T22:18:35.281Z,17.37
2022-11-22T22:21:02.979Z,17.58
2022-11-22T22:23:29.590Z,18.55
2022-11-22T22:26:06.294Z,17.58
2022-11-22T22:28:33.969Z,16.23
2022-11-22T22:31:07.730Z,16.77
2022-11-22T22:33:35.314Z,22.00
2022-11-22T22:36:02.218Z,20.15
2022-11-22T22:38:32.127Z,20.63
2022-11-22T22:41:00.043Z,16.90
2022-11-22T22:43:30.327Z,18.00
2022-11-22T22:46:06.059Z,17.73
2022-11-22T22:48:33.288Z,22.98
2022-11-22T22:51:06.382Z,18.27
2022-11-22T22:53:33.196Z,17.23
2022-11-22T22:55:59.843Z,19.35
2022-11-22T22:58:26.830Z,16.33
2022-11-22T23:00:53.641Z,19.67
2022-11-22T23:03:20.289Z,19.60
2022-11-22T23:05:47.191Z,24.37
2022-11-22T23:08:13.784Z,24.87
2022-11-22T23:10:42.144Z,18.40
2022-11-22T23:13:08.756Z,20.65
2022-11-22T23:15:57.256Z,19.37
2022-11-22T23:18:25.088Z,23.52
2022-11-22T23:20:51.778Z,18.85
2022-11-22T23:23:18.457Z,20.90
2022-11-22T23:25:45.033Z,18.87
2022-11-22T23:28:11.667Z,22.80
2022-11-22T23:30:38.371Z,19.90
2022-11-22T23:33:04.943Z,19.42
2022-11-22T23:35:34.756Z,22.62
2022-11-22T23:38:01.328Z,21.02
2022-11-22T23:40:28.025Z,19.85
2022-11-22T23:42:57.382Z,20.55
2022-11-22T23:45:24.312Z,20.90
2022-11-22T23:47:51.638Z,19.20
2022-11-22T23:50:18.225Z,18.45
2022-11-22T23:52:45.322Z,23.42
2022-11-22T23:55:11.946Z,16.77
2022-11-22T23:57:38.526Z,18.83
